14 sierpnia 2022

Czas Kod Pogoda Temp. Widoczność Sufit Wiatr METAR/SPECI
02:00
V
27 °C 10 km+ - 170° 170° 3 kt METAR LFCK 140000Z AUTO 17003KT CAVOK 27/21 Q1010
01:30
V
28 °C 10 km+ - Var Var 3 kt METAR LFCK 132330Z AUTO VRB03KT 9999 ///TCU 28/21 Q1011
01:00
V
28 °C 10 km+ - 280° 280° 7 kt METAR LFCK 132300Z AUTO 28007KT 250V320 CAVOK 28/21 Q1010
00:30
V
29 °C 10 km+ - Var 000° 0 kt METAR LFCK 132230Z AUTO 00000KT CAVOK 29/20 Q1010
00:00
V
29 °C 10 km+ - 070° 070° 8 kt METAR LFCK 132200Z AUTO 07008KT CAVOK 29/21 Q1010

13 sierpnia 2022

Czas Kod Pogoda Temp. Widoczność Sufit Wiatr METAR/SPECI
23:30
V
29 °C 10 km+ - 090° 090° 12 kt METAR LFCK 132130Z AUTO 09012KT 050V110 CAVOK 29/21 Q1011
23:00
V
29 °C 10 km+ - 130° 130° 13 kt METAR LFCK 132100Z AUTO 13013KT CAVOK 29/22 Q1011 TEMPO TSRA BECMG VRB03KT FEW080CB
22:30
V
28 °C 10 km+ - 150° 150° 5 kt METAR LFCK 132030Z AUTO 15005KT 100V220 CAVOK 28/21 Q1011 TEMPO VRB15G25KT TSRA BECMG FEW080CB
22:00
V
28 °C 10 km+ - 130° 130° 7 kt METAR LFCK 132000Z AUTO 13007KT 100V170 CAVOK 28/21 Q1011 TEMPO VRB15G25KT TSRA SCT060CB
21:30
V
28 °C 10 km+ - 140° 140° 5 kt METAR LFCK 131930Z AUTO 14005KT CAVOK 28/21 Q1011 TEMPO VRB15G25KT TSRA SCT060CB
21:00
V
28 °C 10 km+ - 200° 200° 9 kt METAR LFCK 131900Z AUTO 20009KT 170V250 CAVOK 28/21 Q1011 TEMPO VRB15G25KT TSRA SCT060CB
20:30
V
31 °C 10 km+ - Var Var 6 kt METAR LFCK 131830Z AUTO VRB06KT CAVOK 31/19 Q1011 TEMPO VRB15G25KT TSRA SCT060CB
20:00
V
31 °C 10 km+ - 250° 250° 9 kt METAR LFCK 131800Z AUTO 25009KT 9999 ///CB 31/19 Q1011 TEMPO VRB15G25KT TSRA
19:30
V
33 °C 10 km+ - 220° 220° 4 kt METAR LFCK 131730Z AUTO 22004KT 9999 ///CB 33/19 Q1011 TEMPO VRB15G25KT TSRA
19:00
V
34 °C 10 km+ - Var Var 2 kt METAR LFCK 131700Z AUTO VRB02KT 9999 ///CB 34/18 Q1011 TEMPO VRB15G25KT TSRA
18:30
V
34 °C 10 km+ - 210° 210° 7 kt METAR LFCK 131630Z AUTO 21007KT CAVOK 34/18 Q1011 TEMPO VRB15G25KT TSRA FEW060CB
18:00
V
34 °C 10 km+ - 190° 190° 7 kt METAR LFCK 131600Z AUTO 19007KT 150V230 CAVOK 34/18 Q1011 TEMPO FEW060CB
17:30
V
36 °C 10 km+ - 230° 230° 10 kt METAR LFCK 131530Z AUTO 23010KT 200V260 CAVOK 36/17 Q1011 TEMPO FEW060CB
17:00
V
35 °C 10 km+ - 240° 240° 7 kt METAR LFCK 131500Z AUTO 24007KT CAVOK 35/15 Q1011 NOSIG
16:30
V
35 °C 10 km+ - 260° 260° 3 kt METAR LFCK 131430Z AUTO 26003KT 210V340 CAVOK 35/16 Q1011 NOSIG
16:00
V
35 °C 10 km+ - 250° 250° 6 kt METAR LFCK 131400Z AUTO 25006KT 210V290 CAVOK 35/16 Q1011 NOSIG
15:30
V
35 °C 10 km+ - 280° 280° 5 kt METAR LFCK 131330Z AUTO 28005KT 210V360 CAVOK 35/17 Q1011 NOSIG
15:00
V
34 °C 10 km+ - Var Var 4 kt METAR LFCK 131300Z AUTO VRB04KT CAVOK 34/18 Q1012 NOSIG
14:30
V
32 °C 10 km+ - Var Var 3 kt METAR LFCK 131230Z AUTO VRB03KT CAVOK 32/18 Q1012 NOSIG
14:00
V
32 °C 10 km+ - 270° 270° 5 kt METAR LFCK 131200Z AUTO 27005KT 170V320 CAVOK 32/19 Q1013 NOSIG
13:30
V
30 °C 10 km+ - Var Var 3 kt METAR LFCK 131130Z AUTO VRB03KT CAVOK 30/18 Q1013 NOSIG
13:00
V
29 °C 10 km+ - Var Var 5 kt METAR LFCK 131100Z AUTO VRB05KT CAVOK 29/19 Q1013 NOSIG
12:30
V
28 °C 10 km+ - Var Var 3 kt METAR LFCK 131030Z AUTO VRB03KT CAVOK 28/19 Q1014 NOSIG
12:00
V
27 °C 10 km+ - 320° 320° 4 kt METAR LFCK 131000Z AUTO 32004KT 240V050 CAVOK 27/19 Q1014 NOSIG
11:30
V
26 °C 10 km+ - 280° 280° 5 kt METAR LFCK 130930Z AUTO 28005KT 230V340 CAVOK 26/19 Q1014 NOSIG
11:00
V
25 °C 10 km+ - Var Var 3 kt METAR LFCK 130900Z AUTO VRB03KT 9999 FEW020 25/19 Q1014 NOSIG
10:30
V
25 °C 10 km+ - 320° 320° 3 kt METAR LFCK 130830Z AUTO 32003KT 230V020 9999 FEW018 25/19 Q1014 NOSIG
10:00
M
23 °C 10 km+ 1.700 ft Var 000° 0 kt METAR LFCK 130800Z AUTO 00000KT 9999 OVC017 23/19 Q1014 NOSIG
09:30
M
23 °C 10 km+ 1.600 ft Var Var 1 kt METAR LFCK 130730Z AUTO VRB01KT 9999 OVC016 23/19 Q1014 NOSIG
09:00
M
22 °C 10 km+ 1.600 ft 290° 290° 4 kt METAR LFCK 130700Z AUTO 29004KT 250V320 9999 OVC016 22/18 Q1014 NOSIG
08:30
M
22 °C 10 km+ 1.600 ft 280° 280° 4 kt METAR LFCK 130630Z AUTO 28004KT 9999 OVC016 22/19 Q1014 NOSIG
08:00
M
22 °C 10 km+ 1.700 ft 280° 280° 3 kt METAR LFCK 130600Z AUTO 28003KT 260V320 9999 OVC017 22/18 Q1014 NOSIG
07:30
M
22 °C 10 km+ 1.700 ft 280° 280° 3 kt METAR LFCK 130530Z AUTO 28003KT 9999 BKN017 22/18 Q1014 NOSIG
07:00
V
22 °C 10 km+ - 270° 270° 4 kt METAR LFCK 130500Z AUTO 27004KT CAVOK 22/18 Q1014
06:30
V
23 °C 10 km+ - 270° 270° 7 kt METAR LFCK 130430Z AUTO 27007KT CAVOK 23/19 Q1014
06:00
V
23 °C 10 km+ - 260° 260° 5 kt METAR LFCK 130400Z AUTO 26005KT CAVOK 23/19 Q1014
05:30
V
24 °C 10 km+ - 260° 260° 7 kt METAR LFCK 130330Z AUTO 26007KT CAVOK 24/18 Q1014
05:00
V
25 °C 10 km+ - 280° 280° 7 kt METAR LFCK 130300Z AUTO 28007KT CAVOK 25/16 Q1014
04:30
V
26 °C 10 km+ - 290° 290° 5 kt METAR LFCK 130230Z AUTO 29005KT 260V320 CAVOK 26/16 Q1014
04:00
V
27 °C 10 km+ - 290° 290° 7 kt METAR LFCK 130200Z AUTO 29007KT CAVOK 27/16 Q1013
03:30
V
26 °C 10 km+ - 300° 300° 6 kt METAR LFCK 130130Z AUTO 30006KT CAVOK 26/16 Q1013
03:00
V
26 °C 10 km+ - 270° 270° 5 kt METAR LFCK 130100Z AUTO 27005KT CAVOK 26/16 Q1013
02:30
V
24 °C 10 km+ - Var Var 3 kt METAR LFCK 130030Z AUTO VRB03KT CAVOK 24/16 Q1013
02:00
V
25 °C 10 km+ - 200° 200° 7 kt METAR LFCK 130000Z AUTO 20007KT 160V270 CAVOK 25/16 Q1012
01:30
V
25 °C 10 km+ - 120° 120° 3 kt METAR LFCK 122330Z AUTO 12003KT 090V150 CAVOK 25/15 Q1012
01:00
V
26 °C 10 km+ - 140° 140° 5 kt METAR LFCK 122300Z AUTO 14005KT CAVOK 26/15 Q1012
00:30
V
27 °C 10 km+ - 130° 130° 6 kt METAR LFCK 122230Z AUTO 13006KT CAVOK 27/15 Q1012
00:00
V
27 °C 10 km+ - 140° 140° 5 kt METAR LFCK 122200Z AUTO 14005KT CAVOK 27/15 Q1012

12 sierpnia 2022

Czas Kod Pogoda Temp. Widoczność Sufit Wiatr METAR/SPECI
23:30
V
27 °C 10 km+ - 090° 090° 3 kt METAR LFCK 122130Z AUTO 09003KT 070V140 CAVOK 27/15 Q1012
23:00
V
29 °C 10 km+ - 140° 140° 3 kt METAR LFCK 122100Z AUTO 14003KT CAVOK 29/15 Q1012
22:30
V
30 °C 10 km+ - 120° 120° 4 kt METAR LFCK 122030Z AUTO 12004KT CAVOK 30/14 Q1012 NOSIG
22:00
V
32 °C 10 km+ - 070° 070° 5 kt METAR LFCK 122000Z AUTO 07005KT CAVOK 32/15 Q1012 NOSIG
21:30
V
32 °C 10 km+ - 010° 010° 2 kt METAR LFCK 121930Z AUTO 01002KT CAVOK 32/14 Q1011 NOSIG
21:00
V
35 °C 10 km+ - 300° 300° 6 kt METAR LFCK 121900Z AUTO 30006KT CAVOK 35/14 Q1011 NOSIG
20:30
V
36 °C 10 km+ - 300° 300° 8 kt METAR LFCK 121830Z AUTO 30008KT CAVOK 36/14 Q1011 NOSIG
20:00
V
37 °C 10 km+ - 300° 300° 9 kt METAR LFCK 121800Z AUTO 30009KT CAVOK 37/13 Q1011 TEMPO VRB15G25KT FEW080CB SCT120
19:30
V
38 °C 10 km+ - 310° 310° 10 kt METAR LFCK 121730Z AUTO 31010KT CAVOK 38/14 Q1011 NOSIG
19:00
V
38 °C 10 km+ - 300° 300° 12 kt METAR LFCK 121700Z AUTO 30012KT CAVOK 38/14 Q1011 NOSIG
18:30
V
38 °C 10 km+ - 300° 300° 13 kt METAR LFCK 121630Z AUTO 30013KT 270V330 CAVOK 38/14 Q1011 NOSIG
18:00
V
39 °C 10 km+ - 300° 300° 12 kt METAR LFCK 121600Z AUTO 30012KT 270V330 CAVOK 39/14 Q1011 NOSIG
17:30
V
39 °C 10 km+ - 300° 300° 10 kt METAR LFCK 121530Z AUTO 30010KT 260V340 CAVOK 39/14 Q1011 NOSIG
17:00
V
38 °C 10 km+ - 340° 340° 10 kt METAR LFCK 121500Z AUTO 34010KT 280V010 CAVOK 38/15 Q1012 NOSIG
16:30
V
38 °C 10 km+ - 330° 330° 8 kt METAR LFCK 121430Z AUTO 33008KT 270V030 CAVOK 38/14 Q1012 NOSIG
16:00
V
38 °C 10 km+ - 330° 330° 11 kt METAR LFCK 121400Z AUTO 33011KT 270V010 CAVOK 38/14 Q1012 NOSIG
15:30
V
38 °C 10 km+ - 290° 290° 8 kt METAR LFCK 121330Z AUTO 29008KT 190V340 CAVOK 38/15 Q1013 NOSIG
15:00
V
37 °C 10 km+ - 270° 270° 9 kt METAR LFCK 121300Z AUTO 27009KT CAVOK 37/16 Q1013 NOSIG
14:30
V
37 °C 10 km+ - 270° 270° 10 kt METAR LFCK 121230Z AUTO 27010KT 240V300 CAVOK 37/16 Q1013 NOSIG
14:00
V
36 °C 10 km+ - 320° 320° 7 kt METAR LFCK 121200Z AUTO 32007KT 290V010 CAVOK 36/16 Q1013 NOSIG
13:30
V
35 °C 10 km+ - 280° 280° 4 kt METAR LFCK 121130Z AUTO 28004KT 230V040 CAVOK 35/17 Q1014 NOSIG
13:00
V
34 °C 10 km+ - Var Var 4 kt METAR LFCK 121100Z AUTO VRB04KT CAVOK 34/17 Q1014 NOSIG
12:30
V
33 °C 10 km+ - 260° 260° 5 kt METAR LFCK 121030Z AUTO 26005KT 170V310 CAVOK 33/16 Q1014 NOSIG
12:00
V
32 °C 10 km+ - 280° 280° 5 kt METAR LFCK 121000Z AUTO 28005KT 210V340 CAVOK 32/18 Q1014 NOSIG
11:30
V
31 °C 10 km+ - 280° 280° 5 kt METAR LFCK 120930Z AUTO 28005KT 220V320 CAVOK 31/17 Q1015 NOSIG
11:00
V
30 °C 10 km+ - Var Var 2 kt METAR LFCK 120900Z AUTO VRB02KT CAVOK 30/15 Q1015 NOSIG
10:30
V
29 °C 10 km+ - Var Var 2 kt METAR LFCK 120830Z AUTO VRB02KT CAVOK 29/14 Q1015 NOSIG
10:00
V
28 °C 10 km+ - Var Var 3 kt METAR LFCK 120800Z AUTO VRB03KT CAVOK 28/15 Q1015 NOSIG
09:30
V
27 °C 10 km+ - Var Var 2 kt METAR LFCK 120730Z AUTO VRB02KT CAVOK 27/15 Q1015 NOSIG
09:00
V
25 °C 10 km+ - Var Var 2 kt METAR LFCK 120700Z AUTO VRB02KT CAVOK 25/17 Q1015 NOSIG
08:30
V
24 °C 10 km+ - 140° 140° 4 kt METAR LFCK 120630Z AUTO 14004KT 110V170 CAVOK 24/19 Q1015 NOSIG
08:00
V
22 °C 10 km+ - Var Var 3 kt METAR LFCK 120600Z AUTO VRB03KT CAVOK 22/15 Q1015 NOSIG
07:30
V
20 °C 10 km+ - 120° 120° 3 kt METAR LFCK 120530Z AUTO 12003KT CAVOK 20/16 Q1014
07:00
V
21 °C 10 km+ - 170° 170° 3 kt METAR LFCK 120500Z AUTO 17003KT CAVOK 21/17 Q1014
06:30
V
21 °C 10 km+ - 110° 110° 4 kt METAR LFCK 120430Z AUTO 11004KT 070V140 CAVOK 21/16 Q1014
06:00
V
21 °C 10 km+ - 110° 110° 3 kt METAR LFCK 120400Z AUTO 11003KT CAVOK 21/16 Q1014
05:30
V
22 °C 10 km+ - 140° 140° 5 kt METAR LFCK 120330Z AUTO 14005KT CAVOK 22/17 Q1014
05:00
V
21 °C 10 km+ - 110° 110° 5 kt METAR LFCK 120300Z AUTO 11005KT CAVOK 21/16 Q1014
04:30
V
21 °C 10 km+ - 100° 100° 4 kt METAR LFCK 120230Z AUTO 10004KT CAVOK 21/17 Q1014
04:00
V
23 °C 10 km+ - Var 000° 0 kt METAR LFCK 120200Z AUTO 00000KT CAVOK 23/17 Q1014
03:30
V
23 °C 10 km+ - 090° 090° 4 kt METAR LFCK 120130Z AUTO 09004KT CAVOK 23/16 Q1014
03:00
V
23 °C 10 km+ - 110° 110° 5 kt METAR LFCK 120100Z AUTO 11005KT 080V140 CAVOK 23/17 Q1014
02:30
V
24 °C 10 km+ - Var Var 3 kt METAR LFCK 120030Z AUTO VRB03KT CAVOK 24/17 Q1014
02:00
V
24 °C 10 km+ - 140° 140° 6 kt METAR LFCK 120000Z AUTO 14006KT CAVOK 24/17 Q1014
01:30
V
25 °C 10 km+ - 140° 140° 7 kt METAR LFCK 112330Z AUTO 14007KT CAVOK 25/19 Q1015
01:00
V
25 °C 10 km+ - 130° 130° 5 kt METAR LFCK 112300Z AUTO 13005KT CAVOK 25/17 Q1015
00:30
V
25 °C 10 km+ - 120° 120° 4 kt METAR LFCK 112230Z AUTO 12004KT CAVOK 25/17 Q1014
00:00
V
25 °C 10 km+ - 130° 130° 6 kt METAR LFCK 112200Z AUTO 13006KT CAVOK 25/18 Q1015

11 sierpnia 2022

Czas Kod Pogoda Temp. Widoczność Sufit Wiatr METAR/SPECI
23:30
V
25 °C 10 km+ - 130° 130° 6 kt METAR LFCK 112130Z AUTO 13006KT CAVOK 25/18 Q1015
23:00
V
26 °C 10 km+ - 100° 100° 3 kt METAR LFCK 112100Z AUTO 10003KT CAVOK 26/19 Q1015 NOSIG
22:30
V
27 °C 10 km+ - 110° 110° 7 kt METAR LFCK 112030Z AUTO 11007KT CAVOK 27/19 Q1015 NOSIG
22:00
V
28 °C 10 km+ - 100° 100° 6 kt METAR LFCK 112000Z AUTO 10006KT CAVOK 28/18 Q1014 NOSIG
21:30
V
29 °C 10 km+ - 110° 110° 10 kt METAR LFCK 111930Z AUTO 11010KT CAVOK 29/19 Q1014 NOSIG
21:00
V
30 °C 10 km+ - 110° 110° 12 kt METAR LFCK 111900Z AUTO 11012KT CAVOK 30/19 Q1014 NOSIG
20:30
V
31 °C 10 km+ - 130° 130° 13 kt METAR LFCK 111830Z AUTO 13013KT CAVOK 31/18 Q1014 NOSIG
20:00
V
32 °C 10 km+ - 130° 130° 13 kt METAR LFCK 111800Z AUTO 13013KT CAVOK 32/19 Q1014 NOSIG
19:30
V
33 °C 10 km+ - 130° 130° 16 kt METAR LFCK 111730Z AUTO 13016KT CAVOK 33/18 Q1014 NOSIG
19:00
V
33 °C 10 km+ - 120° 120° 14 kt METAR LFCK 111700Z AUTO 12014KT CAVOK 33/18 Q1013 NOSIG
18:30
V
34 °C 10 km+ - 120° 120° 13 kt METAR LFCK 111630Z AUTO 12013KT CAVOK 34/18 Q1013 NOSIG
18:00
V
35 °C 10 km+ - 120° 120° 15 kt METAR LFCK 111600Z AUTO 12015KT 080V140 CAVOK 35/18 Q1014 NOSIG
17:30
V
36 °C 10 km+ - 130° 130° 13 kt METAR LFCK 111530Z AUTO 13013KT CAVOK 36/18 Q1014 NOSIG
17:00
V
36 °C 10 km+ - 120° 120° 12 kt METAR LFCK 111500Z AUTO 12012KT 090V150 CAVOK 36/17 Q1014 NOSIG
Starsze dane

My i osoby trzecie śledzimy twoje zachowanie w internecie na naszej stronie za pomocą plików cookie. Jeśli kontynuujesz, zakładamy, że zgadzasz się z naszą polityką plików cookie. Dowiedz się więcej